sensor_id;sensor_type;location;lat;lon;timestamp;temperature;humidity
78028;DHT22;67235;45.638;11.714;2023-08-21T00:00:07;25.30;77.40
78028;DHT22;67235;45.638;11.714;2023-08-21T00:02:33;25.30;77.60
78028;DHT22;67235;45.638;11.714;2023-08-21T00:04:59;25.20;77.70
78028;DHT22;67235;45.638;11.714;2023-08-21T00:07:25;25.20;77.80
78028;DHT22;67235;45.638;11.714;2023-08-21T00:09:51;25.10;77.90
78028;DHT22;67235;45.638;11.714;2023-08-21T00:12:17;25.20;77.90
78028;DHT22;67235;45.638;11.714;2023-08-21T00:14:43;25.20;77.70
78028;DHT22;67235;45.638;11.714;2023-08-21T00:17:08;25.20;77.60
78028;DHT22;67235;45.638;11.714;2023-08-21T00:19:34;25.20;77.70
78028;DHT22;67235;45.638;11.714;2023-08-21T00:22:00;25.20;77.80
78028;DHT22;67235;45.638;11.714;2023-08-21T00:24:26;25.10;77.90
78028;DHT22;67235;45.638;11.714;2023-08-21T00:26:52;25.30;77.90
78028;DHT22;67235;45.638;11.714;2023-08-21T00:29:18;25.20;78.00
78028;DHT22;67235;45.638;11.714;2023-08-21T00:31:44;25.20;77.90
78028;DHT22;67235;45.638;11.714;2023-08-21T00:34:10;25.10;78.00
78028;DHT22;67235;45.638;11.714;2023-08-21T00:36:36;25.10;77.80
78028;DHT22;67235;45.638;11.714;2023-08-21T00:39:02;25.10;78.20
78028;DHT22;67235;45.638;11.714;2023-08-21T00:41:28;25.10;78.30
78028;DHT22;67235;45.638;11.714;2023-08-21T00:43:54;25.10;78.10
78028;DHT22;67235;45.638;11.714;2023-08-21T00:46:20;25.10;78.10
78028;DHT22;67235;45.638;11.714;2023-08-21T00:48:46;25.10;78.00
78028;DHT22;67235;45.638;11.714;2023-08-21T00:51:14;25.10;78.00
78028;DHT22;67235;45.638;11.714;2023-08-21T00:53:40;25.10;78.10
78028;DHT22;67235;45.638;11.714;2023-08-21T00:56:07;25.10;78.40
78028;DHT22;67235;45.638;11.714;2023-08-21T00:58:33;25.00;78.50
78028;DHT22;67235;45.638;11.714;2023-08-21T01:00:59;25.00;78.50
78028;DHT22;67235;45.638;11.714;2023-08-21T01:03:25;25.00;78.70
78028;DHT22;67235;45.638;11.714;2023-08-21T01:05:51;25.00;78.80
78028;DHT22;67235;45.638;11.714;2023-08-21T01:08:30;24.90;78.80
78028;DHT22;67235;45.638;11.714;2023-08-21T01:11:21;25.00;78.80
78028;DHT22;67235;45.638;11.714;2023-08-21T01:16:59;25.00;79.00
78028;DHT22;67235;45.638;11.714;2023-08-21T01:19:37;25.00;78.90
78028;DHT22;67235;45.638;11.714;2023-08-21T01:22:05;24.80;78.50
78028;DHT22;67235;45.638;11.714;2023-08-21T01:24:32;24.70;78.50
78028;DHT22;67235;45.638;11.714;2023-08-21T01:26:59;24.60;78.70
78028;DHT22;67235;45.638;11.714;2023-08-21T01:29:25;24.50;78.60
78028;DHT22;67235;45.638;11.714;2023-08-21T01:32:06;24.50;78.60
78028;DHT22;67235;45.638;11.714;2023-08-21T01:34:33;24.50;78.70
78028;DHT22;67235;45.638;11.714;2023-08-21T01:37:03;24.60;78.80
78028;DHT22;67235;45.638;11.714;2023-08-21T01:39:29;24.60;78.60
78028;DHT22;67235;45.638;11.714;2023-08-21T01:41:57;24.60;78.50
78028;DHT22;67235;45.638;11.714;2023-08-21T01:44:23;24.70;78.70
78028;DHT22;67235;45.638;11.714;2023-08-21T01:46:49;24.60;78.70
78028;DHT22;67235;45.638;11.714;2023-08-21T01:49:15;24.70;78.80
78028;DHT22;67235;45.638;11.714;2023-08-21T01:51:43;24.70;78.90
78028;DHT22;67235;45.638;11.714;2023-08-21T01:54:08;24.60;78.90
78028;DHT22;67235;45.638;11.714;2023-08-21T01:56:34;24.70;78.90
78028;DHT22;67235;45.638;11.714;2023-08-21T01:59:02;24.70;78.80
78028;DHT22;67235;45.638;11.714;2023-08-21T02:01:28;24.70;78.70
78028;DHT22;67235;45.638;11.714;2023-08-21T02:03:53;24.70;78.60
78028;DHT22;67235;45.638;11.714;2023-08-21T02:06:19;24.60;78.70
78028;DHT22;67235;45.638;11.714;2023-08-21T02:08:45;24.60;78.60
78028;DHT22;67235;45.638;11.714;2023-08-21T02:11:11;24.60;78.70
78028;DHT22;67235;45.638;11.714;2023-08-21T02:13:37;24.50;79.00
78028;DHT22;67235;45.638;11.714;2023-08-21T02:16:03;24.50;79.20
78028;DHT22;67235;45.638;11.714;2023-08-21T02:18:29;24.60;78.80
78028;DHT22;67235;45.638;11.714;2023-08-21T02:20:55;24.50;78.80
78028;DHT22;67235;45.638;11.714;2023-08-21T02:23:21;24.40;78.90
78028;DHT22;67235;45.638;11.714;2023-08-21T02:25:47;24.50;78.90
78028;DHT22;67235;45.638;11.714;2023-08-21T02:28:14;24.40;78.80
78028;DHT22;67235;45.638;11.714;2023-08-21T02:30:41;24.40;78.80
78028;DHT22;67235;45.638;11.714;2023-08-21T02:33:07;24.40;78.80
78028;DHT22;67235;45.638;11.714;2023-08-21T02:35:33;24.40;78.70
78028;DHT22;67235;45.638;11.714;2023-08-21T02:37:59;24.30;78.60
78028;DHT22;67235;45.638;11.714;2023-08-21T02:40:24;24.30;78.80
78028;DHT22;67235;45.638;11.714;2023-08-21T02:42:50;24.30;78.80
78028;DHT22;67235;45.638;11.714;2023-08-21T02:45:16;24.40;78.80
78028;DHT22;67235;45.638;11.714;2023-08-21T02:47:44;24.40;79.10
78028;DHT22;67235;45.638;11.714;2023-08-21T02:50:10;24.40;78.90
78028;DHT22;67235;45.638;11.714;2023-08-21T02:52:37;24.40;78.90
78028;DHT22;67235;45.638;11.714;2023-08-21T02:55:04;24.40;79.10
78028;DHT22;67235;45.638;11.714;2023-08-21T02:57:30;24.30;79.30
78028;DHT22;67235;45.638;11.714;2023-08-21T02:59:56;24.30;79.00
78028;DHT22;67235;45.638;11.714;2023-08-21T03:02:22;24.30;78.90
78028;DHT22;67235;45.638;11.714;2023-08-21T03:04:49;24.30;78.80
78028;DHT22;67235;45.638;11.714;2023-08-21T03:07:15;24.30;79.10
78028;DHT22;67235;45.638;11.714;2023-08-21T03:09:41;24.20;79.50
78028;DHT22;67235;45.638;11.714;2023-08-21T03:12:08;24.20;79.20
78028;DHT22;67235;45.638;11.714;2023-08-21T03:14:34;24.30;79.20
78028;DHT22;67235;45.638;11.714;2023-08-21T03:17:00;24.30;79.00
78028;DHT22;67235;45.638;11.714;2023-08-21T03:19:26;24.30;78.90
78028;DHT22;67235;45.638;11.714;2023-08-21T03:21:55;24.30;78.50
78028;DHT22;67235;45.638;11.714;2023-08-21T03:24:21;24.20;78.30
78028;DHT22;67235;45.638;11.714;2023-08-21T03:26:52;24.20;78.20
78028;DHT22;67235;45.638;11.714;2023-08-21T03:29:25;24.20;78.00
78028;DHT22;67235;45.638;11.714;2023-08-21T03:31:54;24.20;77.70
78028;DHT22;67235;45.638;11.714;2023-08-21T03:34:25;24.00;77.60
78028;DHT22;67235;45.638;11.714;2023-08-21T03:36:54;24.10;77.70
78028;DHT22;67235;45.638;11.714;2023-08-21T03:39:24;24.00;77.70
78028;DHT22;67235;45.638;11.714;2023-08-21T03:41:52;24.20;77.70
78028;DHT22;67235;45.638;11.714;2023-08-21T03:44:18;24.20;77.60
78028;DHT22;67235;45.638;11.714;2023-08-21T03:46:44;24.20;77.60
78028;DHT22;67235;45.638;11.714;2023-08-21T03:49:09;24.20;77.70
78028;DHT22;67235;45.638;11.714;2023-08-21T03:51:35;24.20;77.70
78028;DHT22;67235;45.638;11.714;2023-08-21T03:54:01;24.20;77.80
78028;DHT22;67235;45.638;11.714;2023-08-21T03:56:27;24.20;77.80
78028;DHT22;67235;45.638;11.714;2023-08-21T03:58:53;24.30;77.90
78028;DHT22;67235;45.638;11.714;2023-08-21T04:01:19;24.10;78.20
78028;DHT22;67235;45.638;11.714;2023-08-21T04:03:44;24.10;78.30
78028;DHT22;67235;45.638;11.714;2023-08-21T04:06:10;24.10;78.30
78028;DHT22;67235;45.638;11.714;2023-08-21T04:08:36;24.10;78.00
78028;DHT22;67235;45.638;11.714;2023-08-21T04:11:02;24.10;78.10
78028;DHT22;67235;45.638;11.714;2023-08-21T04:13:28;24.00;77.80
78028;DHT22;67235;45.638;11.714;2023-08-21T04:15:54;24.00;77.50
78028;DHT22;67235;45.638;11.714;2023-08-21T04:18:22;24.10;77.80
78028;DHT22;67235;45.638;11.714;2023-08-21T04:20:48;24.00;77.70
78028;DHT22;67235;45.638;11.714;2023-08-21T04:23:14;24.10;77.70
78028;DHT22;67235;45.638;11.714;2023-08-21T04:25:40;24.00;77.60
78028;DHT22;67235;45.638;11.714;2023-08-21T04:28:06;24.00;77.80
78028;DHT22;67235;45.638;11.714;2023-08-21T04:30:35;24.10;77.80
78028;DHT22;67235;45.638;11.714;2023-08-21T04:33:01;24.30;77.90
78028;DHT22;67235;45.638;11.714;2023-08-21T04:35:27;24.20;77.50
78028;DHT22;67235;45.638;11.714;2023-08-21T04:37:53;24.30;77.10
78028;DHT22;67235;45.638;11.714;2023-08-21T04:40:19;24.30;77.20
78028;DHT22;67235;45.638;11.714;2023-08-21T04:42:46;24.40;77.10
78028;DHT22;67235;45.638;11.714;2023-08-21T04:45:13;24.50;77.30
78028;DHT22;67235;45.638;11.714;2023-08-21T04:47:39;24.60;77.00
78028;DHT22;67235;45.638;11.714;2023-08-21T04:50:05;25.00;76.50
78028;DHT22;67235;45.638;11.714;2023-08-21T04:52:31;25.50;75.70
78028;DHT22;67235;45.638;11.714;2023-08-21T04:54:57;26.30;74.30
78028;DHT22;67235;45.638;11.714;2023-08-21T04:57:23;27.00;73.60
78028;DHT22;67235;45.638;11.714;2023-08-21T04:59:49;27.70;72.20
78028;DHT22;67235;45.638;11.714;2023-08-21T05:02:15;28.50;71.20
78028;DHT22;67235;45.638;11.714;2023-08-21T05:04:41;29.00;70.60
78028;DHT22;67235;45.638;11.714;2023-08-21T05:07:07;29.60;67.90
78028;DHT22;67235;45.638;11.714;2023-08-21T05:09:33;30.20;66.00
78028;DHT22;67235;45.638;11.714;2023-08-21T05:11:59;30.80;64.10
78028;DHT22;67235;45.638;11.714;2023-08-21T05:14:26;31.30;61.30
78028;DHT22;67235;45.638;11.714;2023-08-21T05:16:53;31.70;60.30
78028;DHT22;67235;45.638;11.714;2023-08-21T05:19:19;31.90;57.20
78028;DHT22;67235;45.638;11.714;2023-08-21T05:21:45;32.40;55.30
78028;DHT22;67235;45.638;11.714;2023-08-21T05:24:11;33.10;53.70
78028;DHT22;67235;45.638;11.714;2023-08-21T05:26:38;33.50;53.20
78028;DHT22;67235;45.638;11.714;2023-08-21T05:29:04;33.60;53.00
78028;DHT22;67235;45.638;11.714;2023-08-21T05:31:30;33.90;51.70
78028;DHT22;67235;45.638;11.714;2023-08-21T05:33:56;34.40;50.70
78028;DHT22;67235;45.638;11.714;2023-08-21T05:36:22;35.00;48.30
78028;DHT22;67235;45.638;11.714;2023-08-21T05:38:49;35.40;46.90
78028;DHT22;67235;45.638;11.714;2023-08-21T05:41:17;35.60;46.40
78028;DHT22;67235;45.638;11.714;2023-08-21T05:43:43;35.70;46.30
78028;DHT22;67235;45.638;11.714;2023-08-21T05:46:11;36.30;45.50
78028;DHT22;67235;45.638;11.714;2023-08-21T05:48:37;37.10;44.40
78028;DHT22;67235;45.638;11.714;2023-08-21T05:51:03;37.70;42.40
78028;DHT22;67235;45.638;11.714;2023-08-21T05:53:29;38.20;41.50
78028;DHT22;67235;45.638;11.714;2023-08-21T05:55:54;38.50;40.60
78028;DHT22;67235;45.638;11.714;2023-08-21T05:58:20;39.00;40.20
78028;DHT22;67235;45.638;11.714;2023-08-21T06:00:47;39.30;39.90
78028;DHT22;67235;45.638;11.714;2023-08-21T06:03:13;39.70;39.20
78028;DHT22;67235;45.638;11.714;2023-08-21T06:05:39;39.90;38.80
78028;DHT22;67235;45.638;11.714;2023-08-21T06:08:05;40.20;37.40
78028;DHT22;67235;45.638;11.714;2023-08-21T06:10:34;40.40;37.10
78028;DHT22;67235;45.638;11.714;2023-08-21T06:12:59;40.70;36.80
78028;DHT22;67235;45.638;11.714;2023-08-21T06:15:25;41.10;35.80
78028;DHT22;67235;45.638;11.714;2023-08-21T06:17:51;41.30;35.50
78028;DHT22;67235;45.638;11.714;2023-08-21T06:20:17;41.70;35.30
78028;DHT22;67235;45.638;11.714;2023-08-21T06:22:45;41.20;35.90
78028;DHT22;67235;45.638;11.714;2023-08-21T06:25:11;41.60;36.00
78028;DHT22;67235;45.638;11.714;2023-08-21T06:27:38;42.00;35.30
78028;DHT22;67235;45.638;11.714;2023-08-21T06:30:04;42.10;34.40
78028;DHT22;67235;45.638;11.714;2023-08-21T06:32:30;42.40;34.60
78028;DHT22;67235;45.638;11.714;2023-08-21T06:34:56;0.20;0.20
78028;DHT22;67235;45.638;11.714;2023-08-21T06:37:22;0.20;0.20
78028;DHT22;67235;45.638;11.714;2023-08-21T06:39:48;0.20;0.20
78028;DHT22;67235;45.638;11.714;2023-08-21T06:42:13;0.20;0.20
78028;DHT22;67235;45.638;11.714;2023-08-21T06:44:40;0.20;0.20
78028;DHT22;67235;45.638;11.714;2023-08-21T06:47:06;0.20;0.20
78028;DHT22;67235;45.638;11.714;2023-08-21T06:49:31;0.20;0.20
78028;DHT22;67235;45.638;11.714;2023-08-21T06:51:58;0.20;0.20
78028;DHT22;67235;45.638;11.714;2023-08-21T06:54:24;0.20;0.20
78028;DHT22;67235;45.638;11.714;2023-08-21T06:56:50;0.20;0.20
78028;DHT22;67235;45.638;11.714;2023-08-21T06:59:16;0.20;0.20
78028;DHT22;67235;45.638;11.714;2023-08-21T07:01:42;0.20;0.20
78028;DHT22;67235;45.638;11.714;2023-08-21T07:04:08;0.20;0.20
78028;DHT22;67235;45.638;11.714;2023-08-21T07:06:33;0.20;0.20
78028;DHT22;67235;45.638;11.714;2023-08-21T07:08:59;0.20;0.20
78028;DHT22;67235;45.638;11.714;2023-08-21T07:11:25;0.20;0.20
78028;DHT22;67235;45.638;11.714;2023-08-21T07:13:51;0.20;0.20
78028;DHT22;67235;45.638;11.714;2023-08-21T07:16:17;0.20;0.20
78028;DHT22;67235;45.638;11.714;2023-08-21T07:18:42;0.20;0.20
78028;DHT22;67235;45.638;11.714;2023-08-21T07:21:08;0.20;0.20
78028;DHT22;67235;45.638;11.714;2023-08-21T07:23:34;0.20;0.20
78028;DHT22;67235;45.638;11.714;2023-08-21T07:26:01;0.20;0.20
78028;DHT22;67235;45.638;11.714;2023-08-21T07:28:27;0.20;0.20
78028;DHT22;67235;45.638;11.714;2023-08-21T07:30:57;0.20;0.20
78028;DHT22;67235;45.638;11.714;2023-08-21T07:33:25;0.20;0.20
78028;DHT22;67235;45.638;11.714;2023-08-21T07:36:01;0.20;0.20
78028;DHT22;67235;45.638;11.714;2023-08-21T07:38:27;0.20;0.20
78028;DHT22;67235;45.638;11.714;2023-08-21T07:41:13;0.20;0.20
78028;DHT22;67235;45.638;11.714;2023-08-21T07:43:43;0.20;0.20
78028;DHT22;67235;45.638;11.714;2023-08-21T07:46:12;0.20;0.20
78028;DHT22;67235;45.638;11.714;2023-08-21T07:48:42;0.20;0.20
78028;DHT22;67235;45.638;11.714;2023-08-21T07:51:11;0.20;0.20
78028;DHT22;67235;45.638;11.714;2023-08-21T07:53:41;0.20;0.20
78028;DHT22;67235;45.638;11.714;2023-08-21T07:56:08;0.20;0.20
78028;DHT22;67235;45.638;11.714;2023-08-21T07:58:35;0.20;0.20
78028;DHT22;67235;45.638;11.714;2023-08-21T08:01:03;0.20;0.20
78028;DHT22;67235;45.638;11.714;2023-08-21T08:03:30;0.20;0.20
78028;DHT22;67235;45.638;11.714;2023-08-21T08:05:57;0.20;0.20
78028;DHT22;67235;45.638;11.714;2023-08-21T08:08:24;0.20;0.20
78028;DHT22;67235;45.638;11.714;2023-08-21T08:10:51;0.20;0.20
78028;DHT22;67235;45.638;11.714;2023-08-21T08:13:16;0.20;0.20
78028;DHT22;67235;45.638;11.714;2023-08-21T08:15:42;0.20;0.20
78028;DHT22;67235;45.638;11.714;2023-08-21T08:18:12;0.20;0.20
78028;DHT22;67235;45.638;11.714;2023-08-21T08:20:38;0.20;0.20
78028;DHT22;67235;45.638;11.714;2023-08-21T08:23:04;0.20;0.20
78028;DHT22;67235;45.638;11.714;2023-08-21T08:25:30;0.20;0.20
78028;DHT22;67235;45.638;11.714;2023-08-21T08:27:56;0.20;0.20
78028;DHT22;67235;45.638;11.714;2023-08-21T08:30:22;0.20;0.20
78028;DHT22;67235;45.638;11.714;2023-08-21T08:32:49;0.20;0.20
78028;DHT22;67235;45.638;11.714;2023-08-21T08:35:15;0.20;0.20
78028;DHT22;67235;45.638;11.714;2023-08-21T08:37:41;0.20;0.20
78028;DHT22;67235;45.638;11.714;2023-08-21T08:40:08;0.20;0.20
78028;DHT22;67235;45.638;11.714;2023-08-21T08:42:35;0.20;0.20
78028;DHT22;67235;45.638;11.714;2023-08-21T08:45:03;0.20;0.20
78028;DHT22;67235;45.638;11.714;2023-08-21T08:47:32;0.20;0.20
78028;DHT22;67235;45.638;11.714;2023-08-21T08:50:02;0.20;0.20
78028;DHT22;67235;45.638;11.714;2023-08-21T08:52:31;0.20;0.20
78028;DHT22;67235;45.638;11.714;2023-08-21T08:54:59;0.20;0.20
78028;DHT22;67235;45.638;11.714;2023-08-21T08:57:25;0.20;0.20
78028;DHT22;67235;45.638;11.714;2023-08-21T08:59:52;0.20;0.20
78028;DHT22;67235;45.638;11.714;2023-08-21T09:02:18;0.20;0.20
78028;DHT22;67235;45.638;11.714;2023-08-21T09:04:44;0.20;0.20
78028;DHT22;67235;45.638;11.714;2023-08-21T09:07:11;0.20;0.20
78028;DHT22;67235;45.638;11.714;2023-08-21T09:09:41;0.20;0.20
78028;DHT22;67235;45.638;11.714;2023-08-21T09:12:14;0.20;0.20
78028;DHT22;67235;45.638;11.714;2023-08-21T09:14:41;0.20;0.20
78028;DHT22;67235;45.638;11.714;2023-08-21T09:17:08;0.20;0.20
78028;DHT22;67235;45.638;11.714;2023-08-21T09:19:34;0.20;0.20
78028;DHT22;67235;45.638;11.714;2023-08-21T09:22:15;0.20;0.20
78028;DHT22;67235;45.638;11.714;2023-08-21T09:25:02;0.20;0.20
78028;DHT22;67235;45.638;11.714;2023-08-21T09:27:39;0.20;0.20
78028;DHT22;67235;45.638;11.714;2023-08-21T09:30:08;0.20;0.20
78028;DHT22;67235;45.638;11.714;2023-08-21T09:32:54;0.20;0.20
78028;DHT22;67235;45.638;11.714;2023-08-21T09:35:25;0.20;0.20
78028;DHT22;67235;45.638;11.714;2023-08-21T09:37:52;0.20;0.20
78028;DHT22;67235;45.638;11.714;2023-08-21T09:40:21;0.20;0.20
78028;DHT22;67235;45.638;11.714;2023-08-21T09:42:57;0.20;0.20
78028;DHT22;67235;45.638;11.714;2023-08-21T09:45:26;0.20;0.20
78028;DHT22;67235;45.638;11.714;2023-08-21T09:47:53;0.20;0.20
78028;DHT22;67235;45.638;11.714;2023-08-21T09:50:19;0.20;0.20
78028;DHT22;67235;45.638;11.714;2023-08-21T09:52:46;0.20;0.20
78028;DHT22;67235;45.638;11.714;2023-08-21T09:55:14;0.20;0.20
78028;DHT22;67235;45.638;11.714;2023-08-21T09:57:41;0.20;0.20
78028;DHT22;67235;45.638;11.714;2023-08-21T10:00:08;0.20;0.20
78028;DHT22;67235;45.638;11.714;2023-08-21T10:02:50;0.20;0.20
78028;DHT22;67235;45.638;11.714;2023-08-21T10:05:17;0.20;0.20
78028;DHT22;67235;45.638;11.714;2023-08-21T10:07:48;0.20;0.20
78028;DHT22;67235;45.638;11.714;2023-08-21T10:10:14;0.20;0.20
78028;DHT22;67235;45.638;11.714;2023-08-21T10:12:41;0.20;0.20
78028;DHT22;67235;45.638;11.714;2023-08-21T10:15:07;0.20;0.20
78028;DHT22;67235;45.638;11.714;2023-08-21T10:17:37;0.20;0.20
78028;DHT22;67235;45.638;11.714;2023-08-21T10:20:07;0.20;0.20
78028;DHT22;67235;45.638;11.714;2023-08-21T10:22:43;0.20;0.20
78028;DHT22;67235;45.638;11.714;2023-08-21T10:25:23;0.20;0.20
78028;DHT22;67235;45.638;11.714;2023-08-21T10:27:58;0.20;0.20
78028;DHT22;67235;45.638;11.714;2023-08-21T10:30:28;0.20;0.20
78028;DHT22;67235;45.638;11.714;2023-08-21T10:32:57;0.20;0.20
78028;DHT22;67235;45.638;11.714;2023-08-21T10:35:32;0.20;0.20
78028;DHT22;67235;45.638;11.714;2023-08-21T10:38:14;0.20;0.20
78028;DHT22;67235;45.638;11.714;2023-08-21T10:41:06;0.20;0.20
78028;DHT22;67235;45.638;11.714;2023-08-21T10:43:45;0.20;0.20
78028;DHT22;67235;45.638;11.714;2023-08-21T10:46:12;0.20;0.20
78028;DHT22;67235;45.638;11.714;2023-08-21T10:48:39;0.20;0.20
78028;DHT22;67235;45.638;11.714;2023-08-21T10:51:07;0.20;0.20
78028;DHT22;67235;45.638;11.714;2023-08-21T10:53:34;0.20;0.20
78028;DHT22;67235;45.638;11.714;2023-08-21T10:56:04;0.20;0.20
78028;DHT22;67235;45.638;11.714;2023-08-21T10:58:44;0.20;0.20
78028;DHT22;67235;45.638;11.714;2023-08-21T11:01:16;0.20;0.20
78028;DHT22;67235;45.638;11.714;2023-08-21T11:03:46;0.20;0.20
78028;DHT22;67235;45.638;11.714;2023-08-21T11:06:12;0.20;0.20
78028;DHT22;67235;45.638;11.714;2023-08-21T11:08:38;0.20;0.20
78028;DHT22;67235;45.638;11.714;2023-08-21T11:11:05;0.20;0.20
78028;DHT22;67235;45.638;11.714;2023-08-21T11:13:32;0.20;0.20
78028;DHT22;67235;45.638;11.714;2023-08-21T11:16:02;0.20;0.20
78028;DHT22;67235;45.638;11.714;2023-08-21T11:18:38;0.20;0.20
78028;DHT22;67235;45.638;11.714;2023-08-21T11:21:11;0.20;0.20
78028;DHT22;67235;45.638;11.714;2023-08-21T11:23:39;0.20;0.20
78028;DHT22;67235;45.638;11.714;2023-08-21T11:26:05;0.20;0.20
78028;DHT22;67235;45.638;11.714;2023-08-21T11:28:34;0.20;0.20
78028;DHT22;67235;45.638;11.714;2023-08-21T11:31:00;0.20;0.20
78028;DHT22;67235;45.638;11.714;2023-08-21T11:33:27;0.20;0.20
78028;DHT22;67235;45.638;11.714;2023-08-21T11:35:54;0.20;0.20
78028;DHT22;67235;45.638;11.714;2023-08-21T11:38:25;40.30;28.90
78028;DHT22;67235;45.638;11.714;2023-08-21T11:40:59;40.20;26.70
78028;DHT22;67235;45.638;11.714;2023-08-21T11:43:36;40.00;26.90
78028;DHT22;67235;45.638;11.714;2023-08-21T11:46:06;39.40;28.50
78028;DHT22;67235;45.638;11.714;2023-08-21T11:48:33;39.70;27.80
78028;DHT22;67235;45.638;11.714;2023-08-21T11:51:00;39.70;27.10
78028;DHT22;67235;45.638;11.714;2023-08-21T11:53:36;39.20;28.40
78028;DHT22;67235;45.638;11.714;2023-08-21T11:56:03;39.00;29.40
78028;DHT22;67235;45.638;11.714;2023-08-21T11:58:38;38.90;27.80
78028;DHT22;67235;45.638;11.714;2023-08-21T12:01:04;39.10;29.70
78028;DHT22;67235;45.638;11.714;2023-08-21T12:03:35;39.30;29.00
78028;DHT22;67235;45.638;11.714;2023-08-21T12:06:09;39.10;28.90
78028;DHT22;67235;45.638;11.714;2023-08-21T12:08:37;39.40;28.90
78028;DHT22;67235;45.638;11.714;2023-08-21T12:11:03;39.30;29.20
78028;DHT22;67235;45.638;11.714;2023-08-21T12:13:29;38.60;28.80
78028;DHT22;67235;45.638;11.714;2023-08-21T12:15:55;38.40;28.40
78028;DHT22;67235;45.638;11.714;2023-08-21T12:18:22;38.30;29.20
78028;DHT22;67235;45.638;11.714;2023-08-21T12:20:48;38.10;29.50
78028;DHT22;67235;45.638;11.714;2023-08-21T12:23:14;38.40;26.80
78028;DHT22;67235;45.638;11.714;2023-08-21T12:25:40;38.50;31.10
78028;DHT22;67235;45.638;11.714;2023-08-21T12:28:09;38.80;31.30
78028;DHT22;67235;45.638;11.714;2023-08-21T12:30:37;38.90;29.70
78028;DHT22;67235;45.638;11.714;2023-08-21T12:33:06;38.70;27.10
78028;DHT22;67235;45.638;11.714;2023-08-21T12:35:36;38.50;28.70
78028;DHT22;67235;45.638;11.714;2023-08-21T12:38:11;38.40;28.20
78028;DHT22;67235;45.638;11.714;2023-08-21T12:40:39;38.30;27.80
78028;DHT22;67235;45.638;11.714;2023-08-21T12:43:05;38.40;29.00
78028;DHT22;67235;45.638;11.714;2023-08-21T12:45:32;38.50;29.10
78028;DHT22;67235;45.638;11.714;2023-08-21T12:47:58;38.30;29.70
78028;DHT22;67235;45.638;11.714;2023-08-21T12:50:24;38.30;29.00
78028;DHT22;67235;45.638;11.714;2023-08-21T12:52:50;38.20;29.00
78028;DHT22;67235;45.638;11.714;2023-08-21T12:55:16;38.30;28.50
78028;DHT22;67235;45.638;11.714;2023-08-21T12:57:42;38.30;27.90
78028;DHT22;67235;45.638;11.714;2023-08-21T13:00:08;38.30;30.00
78028;DHT22;67235;45.638;11.714;2023-08-21T13:02:35;38.20;29.10
78028;DHT22;67235;45.638;11.714;2023-08-21T13:05:02;38.20;28.70
78028;DHT22;67235;45.638;11.714;2023-08-21T13:07:30;38.20;31.90
78028;DHT22;67235;45.638;11.714;2023-08-21T13:09:56;38.30;30.80
78028;DHT22;67235;45.638;11.714;2023-08-21T13:12:30;38.30;30.60
78028;DHT22;67235;45.638;11.714;2023-08-21T13:15:02;38.30;32.10
78028;DHT22;67235;45.638;11.714;2023-08-21T13:17:30;38.30;31.40
78028;DHT22;67235;45.638;11.714;2023-08-21T13:19:56;38.00;30.80
78028;DHT22;67235;45.638;11.714;2023-08-21T13:22:22;37.90;31.60
78028;DHT22;67235;45.638;11.714;2023-08-21T13:24:49;38.10;30.30
78028;DHT22;67235;45.638;11.714;2023-08-21T13:27:16;38.10;29.20
78028;DHT22;67235;45.638;11.714;2023-08-21T13:29:46;38.20;32.60
78028;DHT22;67235;45.638;11.714;2023-08-21T13:32:13;38.10;29.80
78028;DHT22;67235;45.638;11.714;2023-08-21T13:34:39;38.00;30.00
78028;DHT22;67235;45.638;11.714;2023-08-21T13:37:09;37.80;31.30
78028;DHT22;67235;45.638;11.714;2023-08-21T13:39:39;37.70;31.20
78028;DHT22;67235;45.638;11.714;2023-08-21T13:42:06;37.50;31.10
78028;DHT22;67235;45.638;11.714;2023-08-21T13:44:39;37.40;32.70
78028;DHT22;67235;45.638;11.714;2023-08-21T13:47:08;37.30;33.30
78028;DHT22;67235;45.638;11.714;2023-08-21T13:49:35;37.30;32.10
78028;DHT22;67235;45.638;11.714;2023-08-21T13:52:03;37.20;33.50
78028;DHT22;67235;45.638;11.714;2023-08-21T13:54:32;37.20;32.70
78028;DHT22;67235;45.638;11.714;2023-08-21T13:57:01;37.00;33.20
78028;DHT22;67235;45.638;11.714;2023-08-21T13:59:30;37.20;33.30
78028;DHT22;67235;45.638;11.714;2023-08-21T14:01:56;37.20;34.80
78028;DHT22;67235;45.638;11.714;2023-08-21T14:04:23;37.40;31.60
78028;DHT22;67235;45.638;11.714;2023-08-21T14:06:50;37.40;31.70
78028;DHT22;67235;45.638;11.714;2023-08-21T14:09:15;37.30;31.90
78028;DHT22;67235;45.638;11.714;2023-08-21T14:11:41;37.30;33.50
78028;DHT22;67235;45.638;11.714;2023-08-21T14:14:09;37.40;35.10
78028;DHT22;67235;45.638;11.714;2023-08-21T14:16:35;37.50;35.80
78028;DHT22;67235;45.638;11.714;2023-08-21T14:19:01;37.60;33.40
78028;DHT22;67235;45.638;11.714;2023-08-21T14:21:27;37.40;33.00
78028;DHT22;67235;45.638;11.714;2023-08-21T14:23:52;37.50;32.30
78028;DHT22;67235;45.638;11.714;2023-08-21T14:26:19;37.50;33.30
78028;DHT22;67235;45.638;11.714;2023-08-21T14:28:45;37.40;31.90
78028;DHT22;67235;45.638;11.714;2023-08-21T14:31:16;37.30;35.80
78028;DHT22;67235;45.638;11.714;2023-08-21T14:33:42;37.20;35.00
78028;DHT22;67235;45.638;11.714;2023-08-21T14:36:08;37.20;34.20
78028;DHT22;67235;45.638;11.714;2023-08-21T14:38:34;37.30;32.60
78028;DHT22;67235;45.638;11.714;2023-08-21T14:41:00;37.30;32.90
78028;DHT22;67235;45.638;11.714;2023-08-21T14:43:26;37.30;30.70
78028;DHT22;67235;45.638;11.714;2023-08-21T14:45:53;37.40;31.80
78028;DHT22;67235;45.638;11.714;2023-08-21T14:48:19;37.40;31.60
78028;DHT22;67235;45.638;11.714;2023-08-21T14:50:45;37.20;34.40
78028;DHT22;67235;45.638;11.714;2023-08-21T14:53:11;37.20;33.20
78028;DHT22;67235;45.638;11.714;2023-08-21T14:55:37;37.20;32.60
78028;DHT22;67235;45.638;11.714;2023-08-21T14:58:03;37.10;34.30
78028;DHT22;67235;45.638;11.714;2023-08-21T15:00:32;37.10;31.80
78028;DHT22;67235;45.638;11.714;2023-08-21T15:02:58;36.90;32.80
78028;DHT22;67235;45.638;11.714;2023-08-21T15:05:26;36.70;34.20
78028;DHT22;67235;45.638;11.714;2023-08-21T15:07:52;36.70;34.70
78028;DHT22;67235;45.638;11.714;2023-08-21T15:10:20;36.90;35.40
78028;DHT22;67235;45.638;11.714;2023-08-21T15:12:46;36.80;33.90
78028;DHT22;67235;45.638;11.714;2023-08-21T15:15:12;36.70;35.20
78028;DHT22;67235;45.638;11.714;2023-08-21T15:17:38;36.50;32.80
78028;DHT22;67235;45.638;11.714;2023-08-21T15:20:04;36.70;35.30
78028;DHT22;67235;45.638;11.714;2023-08-21T15:22:33;36.70;35.60
78028;DHT22;67235;45.638;11.714;2023-08-21T15:24:59;36.50;35.40
78028;DHT22;67235;45.638;11.714;2023-08-21T15:27:25;36.30;32.30
78028;DHT22;67235;45.638;11.714;2023-08-21T15:29:51;36.50;33.10